Time;durP1;ratioP1;P1;durP2;ratioP2;P2;SDS_P1;SDS_P2;PMS_P1;PMS_P2;Temp;Humidity;BMP_temperature;BMP_pressure;BME280_temperature;BME280_humidity;BME280_pressure;Samples;Min_cycle;Max_cycle;Signal;HPM_P1;HPM_P2
2021/09/26 00:02:00;;;;;;;;;;;;;;;16.08;76.17;96591.66;5074603;28;19950;-81
2021/09/26 00:04:26;;;;;;;;;;;;;;;16.10;76.55;96586.13;5074731;28;19948;-81
2021/09/26 00:06:52;;;;;;;;;;;;;;;16.10;76.10;96588.75;5074410;28;19952;-81
2021/09/26 00:09:18;;;;;;;;;;;;;;;16.09;77.44;96584.53;5074567;28;19953;-81
2021/09/26 00:11:44;;;;;;;;;;;;;;;16.07;77.45;96582.13;5074772;28;19990;-81
2021/09/26 00:14:10;;;;;;;;;;;;;;;16.05;77.87;96581.59;5074277;28;20035;-81
2021/09/26 00:16:35;;;;;;;;;;;;;;;16.04;78.14;96585.25;5074630;28;19960;-81
2021/09/26 00:19:02;;;;;;;;;;;;;;;16.00;77.19;96577.03;5074123;28;20439;-81
2021/09/26 00:21:28;;;;;;;;;;;;;;;16.00;78.37;96581.50;5073826;28;19962;-81
2021/09/26 00:23:56;;;;;;;;;;;;;;;15.98;78.05;96576.50;5074745;28;20036;-81
2021/09/26 00:26:22;;;;;;;;;;;;;;;15.98;77.71;96571.22;5074060;28;19954;-81
2021/09/26 00:28:48;;;;;;;;;;;;;;;15.98;77.48;96562.44;5074110;28;20036;-81
2021/09/26 00:31:14;;;;;;;;;;;;;;;15.99;77.69;96569.34;5074065;28;19991;-81
2021/09/26 00:33:39;;;;;;;;;;;;;;;15.99;77.78;96567.50;5073843;28;20444;-81
2021/09/26 00:36:05;;;;;;;;;;;;;;;15.99;77.83;96569.34;5074149;28;20048;-81
2021/09/26 00:38:31;;;;;;;;;;;;;;;15.99;77.94;96570.16;5073883;28;19972;-81
2021/09/26 00:40:57;;;;;;;;;;;;;;;15.99;77.90;96564.06;5074157;28;19960;-81
2021/09/26 00:43:23;;;;;;;;;;;;;;;15.99;78.12;96556.91;5074121;28;20328;-81
2021/09/26 00:45:49;;;;;;;;;;;;;;;15.99;78.13;96558.78;5073870;28;19958;-81
2021/09/26 00:48:16;;;;;;;;;;;;;;;15.98;78.13;96570.38;5073702;28;20441;-81
2021/09/26 00:50:42;;;;;;;;;;;;;;;15.98;78.33;96560.63;5073899;28;19981;-81
2021/09/26 00:53:08;;;;;;;;;;;;;;;15.96;78.24;96561.94;5073471;28;19961;-81
2021/09/26 00:55:34;;;;;;;;;;;;;;;15.96;78.23;96562.72;5073998;28;19954;-81
2021/09/26 00:58:00;;;;;;;;;;;;;;;15.95;77.90;96562.97;5073325;28;19971;-81
2021/09/26 01:00:26;;;;;;;;;;;;;;;15.93;77.81;96557.91;5073802;28;19956;-81
2021/09/26 01:02:52;;;;;;;;;;;;;;;15.94;77.60;96564.81;5072714;28;19953;-81
2021/09/26 01:05:19;;;;;;;;;;;;;;;15.93;77.95;96567.69;5072042;28;19946;-81
2021/09/26 01:07:51;;;;;;;;;;;;;;;15.92;77.65;96555.53;5073532;28;19947;-81
2021/09/26 01:10:36;;;;;;;;;;;;;;;15.91;78.00;96567.94;5073919;28;19960;-80
2021/09/26 01:13:01;;;;;;;;;;;;;;;15.89;77.81;96564.75;5073626;28;19954;-80
2021/09/26 01:15:45;;;;;;;;;;;;;;;15.87;78.05;96564.19;5073533;28;20319;-81
2021/09/26 01:18:13;;;;;;;;;;;;;;;15.85;78.00;96570.78;5073569;28;19964;-81
2021/09/26 01:20:43;;;;;;;;;;;;;;;15.83;77.86;96568.38;5073745;28;19970;-81
2021/09/26 01:23:21;;;;;;;;;;;;;;;15.81;78.12;96573.13;5073432;28;20425;-81
2021/09/26 01:25:57;;;;;;;;;;;;;;;15.78;78.31;96565.69;5073157;28;19945;-80
2021/09/26 01:28:42;;;;;;;;;;;;;;;15.76;78.57;96573.06;5073631;28;19950;-81
2021/09/26 01:31:27;;;;;;;;;;;;;;;15.76;77.93;96575.72;5073259;28;19952;-81
2021/09/26 01:33:55;;;;;;;;;;;;;;;15.74;78.46;96570.66;5061923;28;19953;-81
2021/09/26 01:36:25;;;;;;;;;;;;;;;15.73;79.13;96571.72;5073289;28;19952;-81
2021/09/26 01:39:01;;;;;;;;;;;;;;;15.72;78.79;96569.31;5073510;28;19974;-81
2021/09/26 01:41:45;;;;;;;;;;;;;;;15.70;78.32;96566.88;5073699;28;19960;-81
2021/09/26 01:44:13;;;;;;;;;;;;;;;15.69;78.53;96577.72;5065614;28;19953;-81
2021/09/26 01:46:42;;;;;;;;;;;;;;;15.66;78.57;96571.06;5073286;28;19952;-81
2021/09/26 01:49:12;;;;;;;;;;;;;;;15.65;78.90;96566.84;5073454;28;19958;-80
2021/09/26 01:51:40;;;;;;;;;;;;;;;15.63;78.83;96574.22;5062726;28;19962;-81
2021/09/26 01:54:08;;;;;;;;;;;;;;;15.61;79.06;96576.31;5073348;28;19953;-81
2021/09/26 01:56:35;;;;;;;;;;;;;;;15.58;78.71;96580.25;5061494;28;19959;-81
2021/09/26 01:59:01;;;;;;;;;;;;;;;15.58;79.06;96572.31;5072930;28;19964;-81
2021/09/26 02:01:27;;;;;;;;;;;;;;;15.54;79.42;96568.56;5073156;28;19961;-81
2021/09/26 02:03:55;;;;;;;;;;;;;;;15.53;79.85;96559.03;5071506;28;19962;-81
2021/09/26 02:06:21;;;;;;;;;;;;;;;15.51;79.74;96569.03;5073513;28;19946;-81
2021/09/26 02:08:47;;;;;;;;;;;;;;;15.51;79.92;96565.63;5072098;28;20361;-81
2021/09/26 02:11:13;;;;;;;;;;;;;;;15.48;79.92;96551.06;5075294;28;19950;-81
2021/09/26 02:13:40;;;;;;;;;;;;;;;15.47;80.21;96548.66;5076477;28;19958;-81
2021/09/26 02:16:08;;;;;;;;;;;;;;;15.46;80.11;96552.34;5076644;28;19953;-81
2021/09/26 02:18:34;;;;;;;;;;;;;;;15.45;80.00;96567.38;5076583;28;19963;-81
2021/09/26 02:21:01;;;;;;;;;;;;;;;15.43;80.09;96569.47;5076496;28;19953;-81
2021/09/26 02:23:26;;;;;;;;;;;;;;;15.41;79.68;96575.03;5076675;28;19960;-81
2021/09/26 02:25:53;;;;;;;;;;;;;;;15.40;80.21;96575.25;5076455;28;19991;-81
2021/09/26 02:28:19;;;;;;;;;;;;;;;15.37;79.94;96565.16;5076348;28;20013;-81
2021/09/26 02:30:46;;;;;;;;;;;;;;;15.36;79.71;96566.22;5076407;28;19957;-81
2021/09/26 02:33:12;;;;;;;;;;;;;;;15.32;80.92;96575.69;5076279;28;20338;-81
2021/09/26 02:35:38;;;;;;;;;;;;;;;15.28;80.76;96567.44;5076753;28;20419;-81
2021/09/26 02:38:04;;;;;;;;;;;;;;;15.26;80.39;96558.97;5075999;28;19959;-81
2021/09/26 02:40:30;;;;;;;;;;;;;;;15.23;80.61;96560.25;5076245;28;20004;-80
2021/09/26 02:42:56;;;;;;;;;;;;;;;15.22;81.20;96563.13;5075974;28;20327;-81
2021/09/26 02:45:22;;;;;;;;;;;;;;;15.17;81.99;96555.94;5075897;28;19959;-81
2021/09/26 02:48:08;;;;;;;;;;;;;;;15.13;82.07;96549.53;5076692;28;20001;-81
2021/09/26 02:50:34;;;;;;;;;;;;;;;15.12;81.69;96555.06;5075873;28;19987;-80
2021/09/26 02:53:01;;;;;;;;;;;;;;;15.11;81.63;96554.28;5076097;28;19960;-81
2021/09/26 02:55:28;;;;;;;;;;;;;;;15.12;81.68;96547.97;5075839;28;19959;-81
2021/09/26 02:57:54;;;;;;;;;;;;;;;15.14;86.52;96545.06;5076544;28;20408;-81
2021/09/26 03:00:20;;;;;;;;;;;;;;;15.13;82.33;96538.19;5075507;28;19979;-81
2021/09/26 03:02:46;;;;;;;;;;;;;;;15.12;81.68;96533.94;5075717;28;19947;-81
2021/09/26 03:05:12;;;;;;;;;;;;;;;15.14;81.60;96532.66;5075606;28;19958;-81
2021/09/26 03:07:38;;;;;;;;;;;;;;;15.13;82.16;96527.63;5060060;28;19950;-81
2021/09/26 03:10:05;;;;;;;;;;;;;;;15.12;82.17;96526.84;5075458;28;19960;-81
2021/09/26 03:12:32;;;;;;;;;;;;;;;15.11;82.30;96529.72;5075644;28;19947;-81
2021/09/26 03:14:58;;;;;;;;;;;;;;;15.10;82.10;96531.56;5075794;28;19958;-81
2021/09/26 03:17:23;;;;;;;;;;;;;;;15.09;82.37;96521.22;5075492;28;20051;-81
2021/09/26 03:19:49;;;;;;;;;;;;;;;15.09;82.74;96524.66;5076147;28;20060;-81
2021/09/26 03:22:15;;;;;;;;;;;;;;;15.09;82.65;96529.16;5074986;28;20427;-81
2021/09/26 03:24:41;;;;;;;;;;;;;;;15.08;82.86;96527.56;5075113;28;20009;-81
2021/09/26 03:27:12;;;;;;;;;;;;;;;15.07;82.59;96528.59;5075082;28;19960;-81
2021/09/26 03:29:40;;;;;;;;;;;;;;;15.04;82.36;96515.91;5075652;28;19960;-81
2021/09/26 03:32:06;;;;;;;;;;;;;;;15.03;82.32;96523.00;5075150;28;19959;-81
2021/09/26 03:34:31;;;;;;;;;;;;;;;15.00;82.07;96521.66;5075118;28;19959;-81
2021/09/26 03:36:57;;;;;;;;;;;;;;;14.99;82.22;96522.72;5075036;28;20386;-81
2021/09/26 03:39:23;;;;;;;;;;;;;;;14.98;82.06;96518.44;5074863;28;20054;-81
2021/09/26 03:41:49;;;;;;;;;;;;;;;14.97;82.58;96519.50;5074823;28;20001;-82
2021/09/26 03:44:15;;;;;;;;;;;;;;;14.94;82.39;96524.47;5075325;28;20059;-81
2021/09/26 03:46:41;;;;;;;;;;;;;;;14.92;81.87;96526.56;5074960;28;20042;-81
2021/09/26 03:49:07;;;;;;;;;;;;;;;14.91;82.13;96519.66;5074506;28;20427;-80
2021/09/26 03:51:33;;;;;;;;;;;;;;;14.89;82.30;96519.09;5074544;28;19979;-81
2021/09/26 03:53:59;;;;;;;;;;;;;;;14.87;82.60;96516.72;5075290;28;19956;-81
2021/09/26 03:56:26;;;;;;;;;;;;;;;14.86;82.42;96515.13;5074583;28;20309;-81
2021/09/26 03:58:51;;;;;;;;;;;;;;;14.84;82.43;96519.84;5074325;28;20019;-81
2021/09/26 04:01:17;;;;;;;;;;;;;;;14.81;82.31;96518.50;5074673;28;19953;-81
2021/09/26 04:03:43;;;;;;;;;;;;;;;14.80;82.38;96518.72;5074853;28;19949;-81
2021/09/26 04:06:12;;;;;;;;;;;;;;;14.79;82.42;96517.13;5074528;28;20050;-81
2021/09/26 04:08:39;;;;;;;;;;;;;;;14.77;82.57;96524.50;5074150;28;19949;-81
2021/09/26 04:11:07;;;;;;;;;;;;;;;14.74;82.49;96517.88;5074539;28;19952;-81
2021/09/26 04:13:32;;;;;;;;;;;;;;;14.73;82.25;96523.38;5074561;28;19959;-81
2021/09/26 04:15:58;;;;;;;;;;;;;;;14.72;82.85;96522.59;5074399;28;20436;-81
2021/09/26 04:18:24;;;;;;;;;;;;;;;14.70;82.65;96514.13;5074384;28;19956;-81
2021/09/26 04:20:50;;;;;;;;;;;;;;;14.70;82.67;96523.84;5072737;28;20038;-81
2021/09/26 04:23:16;;;;;;;;;;;;;;;14.67;82.63;96511.94;5074446;28;19962;-81
2021/09/26 04:25:42;;;;;;;;;;;;;;;14.67;82.83;96516.44;5074199;28;19955;-81
2021/09/26 04:28:08;;;;;;;;;;;;;;;14.66;85.70;96513.00;5074571;28;20399;-81
2021/09/26 04:30:36;;;;;;;;;;;;;;;14.65;83.34;96511.38;5074058;28;19949;-81
2021/09/26 04:33:02;;;;;;;;;;;;;;;14.65;83.62;96508.75;5073313;28;20445;-81
2021/09/26 04:35:28;;;;;;;;;;;;;;;14.64;83.88;96509.81;5073920;28;19954;-81
2021/09/26 04:37:56;;;;;;;;;;;;;;;14.64;83.61;96515.09;5074307;28;20294;-81
2021/09/26 04:40:21;;;;;;;;;;;;;;;14.64;83.74;96514.28;5074391;28;20433;-81
2021/09/26 04:42:47;;;;;;;;;;;;;;;14.63;83.85;96507.41;5073981;28;19962;-81
2021/09/26 04:45:13;;;;;;;;;;;;;;;14.63;83.71;96512.69;5073572;28;19983;-81
2021/09/26 04:47:39;;;;;;;;;;;;;;;14.61;83.87;96516.38;5073935;28;20024;-81
2021/09/26 04:50:06;;;;;;;;;;;;;;;14.60;83.95;96512.13;5072298;28;20342;-81
2021/09/26 04:52:34;;;;;;;;;;;;;;;14.59;83.91;96509.72;5073305;28;20302;-81
2021/09/26 04:55:00;;;;;;;;;;;;;;;14.59;86.18;96505.25;5073607;28;19966;-81
2021/09/26 04:57:26;;;;;;;;;;;;;;;14.58;85.61;96503.63;5073828;28;19959;-81
2021/09/26 04:59:52;;;;;;;;;;;;;;;14.57;84.57;96496.78;5073571;28;20351;-81
2021/09/26 05:02:18;;;;;;;;;;;;;;;14.58;84.43;96505.50;5073808;28;19946;-81
2021/09/26 05:04:44;;;;;;;;;;;;;;;14.57;84.56;96499.41;5073536;28;20336;-81
2021/09/26 05:07:09;;;;;;;;;;;;;;;14.56;84.60;96503.09;5073855;28;19955;-81
2021/09/26 05:09:35;;;;;;;;;;;;;;;14.57;84.92;96509.97;5074019;28;19993;-81
2021/09/26 05:12:01;;;;;;;;;;;;;;;14.58;84.81;96502.84;5074007;28;20330;-81
2021/09/26 05:14:27;;;;;;;;;;;;;;;14.58;84.89;96494.94;5073439;28;19951;-81
2021/09/26 05:16:53;;;;;;;;;;;;;;;14.58;85.67;96497.56;5073663;28;19944;-81
2021/09/26 05:19:19;;;;;;;;;;;;;;;14.58;85.54;96502.84;5072092;28;19972;-81
2021/09/26 05:21:45;;;;;;;;;;;;;;;14.57;85.00;96501.25;5073625;28;19996;-81
2021/09/26 05:24:11;;;;;;;;;;;;;;;14.56;85.28;96505.72;5073900;28;20008;-81
2021/09/26 05:26:37;;;;;;;;;;;;;;;14.57;85.69;96515.25;5073610;28;19952;-81
2021/09/26 05:29:05;;;;;;;;;;;;;;;14.57;85.96;96515.25;5073331;28;20034;-81
2021/09/26 05:31:32;;;;;;;;;;;;;;;14.58;86.18;96519.47;5073340;28;20417;-81
2021/09/26 05:33:58;;;;;;;;;;;;;;;14.60;87.38;96517.41;5073080;28;19952;-81
2021/09/26 05:36:25;;;;;;;;;;;;;;;14.60;88.36;96506.84;5072950;28;20317;-81
2021/09/26 05:38:51;;;;;;;;;;;;;;;14.62;86.75;96503.97;5073397;28;19955;-81
2021/09/26 05:41:17;;;;;;;;;;;;;;;14.65;86.85;96514.03;5073478;28;19970;-81
2021/09/26 05:43:44;;;;;;;;;;;;;;;14.67;87.65;96511.94;5073459;28;19953;-81
2021/09/26 05:46:10;;;;;;;;;;;;;;;14.69;88.03;96520.41;5077253;28;19957;-81
2021/09/26 05:48:36;;;;;;;;;;;;;;;14.72;87.49;96533.16;5077309;28;20410;-81
2021/09/26 05:51:02;;;;;;;;;;;;;;;14.82;87.36;96533.31;5077059;28;20059;-81
2021/09/26 05:53:28;;;;;;;;;;;;;;;15.01;87.30;96531.19;5077202;28;19956;-81
2021/09/26 05:55:54;;;;;;;;;;;;;;;15.18;87.18;96525.03;5077033;28;19960;-81
2021/09/26 05:58:20;;;;;;;;;;;;;;;15.26;86.17;96518.53;5076955;28;20357;-81
2021/09/26 06:00:46;;;;;;;;;;;;;;;15.26;85.25;96521.19;5076975;28;19960;-81
2021/09/26 06:03:12;;;;;;;;;;;;;;;15.32;84.66;96517.56;5077024;28;19953;-81
2021/09/26 06:05:38;;;;;;;;;;;;;;;15.43;84.67;96519.25;5077279;28;19948;-81
2021/09/26 06:08:04;;;;;;;;;;;;;;;15.50;83.73;96516.47;5076314;28;20375;-81
2021/09/26 06:10:30;;;;;;;;;;;;;;;15.54;84.89;96512.25;5076885;28;20046;-81
2021/09/26 06:12:56;;;;;;;;;;;;;;;15.46;84.02;96513.50;5076638;28;20360;-81
2021/09/26 06:15:22;;;;;;;;;;;;;;;15.40;84.69;96506.56;5076667;28;19993;-81
2021/09/26 06:17:48;;;;;;;;;;;;;;;15.36;84.58;96516.03;5076661;28;19955;-81
2021/09/26 06:20:17;;;;;;;;;;;;;;;15.40;84.60;96527.69;5076800;28;20010;-81
2021/09/26 06:22:43;;;;;;;;;;;;;;;15.47;85.02;96538.88;5076490;28;20332;-81
2021/09/26 06:25:09;;;;;;;;;;;;;;;15.54;85.04;96538.69;5076884;28;20002;-81
2021/09/26 06:27:35;;;;;;;;;;;;;;;15.66;85.23;96547.28;5076356;28;19955;-81
2021/09/26 06:30:02;;;;;;;;;;;;;;;15.83;86.82;96549.88;5076351;28;20437;-81
2021/09/26 06:32:31;;;;;;;;;;;;;;;15.99;84.29;96566.72;5076370;28;19946;-81
2021/09/26 06:34:59;;;;;;;;;;;;;;;16.12;83.70;96570.78;5076386;28;19955;-81
2021/09/26 06:37:25;;;;;;;;;;;;;;;16.22;84.07;96578.84;5065354;28;19954;-81
2021/09/26 06:39:50;;;;;;;;;;;;;;;16.34;81.93;96571.53;5076159;28;19977;-81
2021/09/26 06:42:17;;;;;;;;;;;;;;;16.43;80.97;96571.88;5076831;28;19986;-81
2021/09/26 06:44:43;;;;;;;;;;;;;;;16.55;80.92;96567.22;5076066;28;19950;-81
2021/09/26 06:47:08;;;;;;;;;;;;;;;16.72;81.34;96564.44;5075921;28;19959;-81
2021/09/26 06:49:34;;;;;;;;;;;;;;;16.88;80.76;96554.75;5076217;28;19977;-81
2021/09/26 06:52:00;;;;;;;;;;;;;;;16.99;80.03;96535.25;5075731;28;20013;-81
2021/09/26 06:54:26;;;;;;;;;;;;;;;17.03;79.90;96543.47;5075907;28;19959;-81
2021/09/26 06:56:52;;;;;;;;;;;;;;;17.05;79.97;96549.31;5075306;28;19956;-81
2021/09/26 06:59:18;;;;;;;;;;;;;;;17.20;79.47;96559.22;5076007;28;20031;-80
2021/09/26 07:01:44;;;;;;;;;;;;;;;17.40;80.61;96571.75;5076157;28;20013;-80
2021/09/26 07:04:10;;;;;;;;;;;;;;;17.60;80.92;96573.69;5075763;28;20317;-81
2021/09/26 07:06:36;;;;;;;;;;;;;;;17.77;79.90;96568.97;5076171;28;19966;-81
2021/09/26 07:09:02;;;;;;;;;;;;;;;17.90;79.04;96577.53;5074701;28;20048;-80
2021/09/26 07:11:27;;;;;;;;;;;;;;;17.91;79.26;96585.25;5075539;28;19963;-81
2021/09/26 07:13:53;;;;;;;;;;;;;;;17.82;80.22;96589.41;5075549;28;19953;-81
2021/09/26 07:16:19;;;;;;;;;;;;;;;17.73;80.27;96598.94;5075714;28;20038;-80
2021/09/26 07:18:45;;;;;;;;;;;;;;;17.69;80.81;96603.16;5075451;28;19949;-80
2021/09/26 07:21:13;;;;;;;;;;;;;;;17.67;79.76;96606.06;5075156;28;19976;-80
2021/09/26 07:23:39;;;;;;;;;;;;;;;17.55;79.99;96600.19;5075426;28;20425;-80
2021/09/26 07:26:05;;;;;;;;;;;;;;;17.49;81.40;96606.50;5075316;28;19988;-80
2021/09/26 07:28:31;;;;;;;;;;;;;;;17.45;83.13;96606.25;5075490;28;20443;-80
2021/09/26 07:30:57;;;;;;;;;;;;;;;17.44;83.14;96618.69;5075264;28;19957;-81
2021/09/26 07:33:23;;;;;;;;;;;;;;;17.44;82.98;96610.72;5075472;28;20327;-80
2021/09/26 07:35:49;;;;;;;;;;;;;;;17.46;81.98;96623.75;5075121;28;20449;-80
2021/09/26 07:38:15;;;;;;;;;;;;;;;17.48;82.50;96631.44;5075297;28;19955;-80
2021/09/26 07:40:41;;;;;;;;;;;;;;;17.50;82.21;96637.28;5075081;28;19986;-80
2021/09/26 07:43:07;;;;;;;;;;;;;;;17.46;82.01;96650.25;5074731;28;19965;-80
2021/09/26 07:45:34;;;;;;;;;;;;;;;17.45;82.83;96664.59;5075038;28;19995;-80
2021/09/26 07:48:00;;;;;;;;;;;;;;;17.40;82.70;96673.28;5075061;28;19957;-80
2021/09/26 07:50:26;;;;;;;;;;;;;;;17.36;82.73;96679.34;5074591;28;20346;-80
2021/09/26 07:52:52;;;;;;;;;;;;;;;17.33;83.91;96679.88;5074792;28;19972;-80
2021/09/26 07:55:18;;;;;;;;;;;;;;;17.32;82.51;96673.75;5074780;28;19953;-80
2021/09/26 07:57:45;;;;;;;;;;;;;;;17.33;83.82;96671.94;5074345;28;19960;-80
2021/09/26 08:00:11;;;;;;;;;;;;;;;17.32;83.33;96670.31;5074992;28;20350;-80
2021/09/26 08:02:37;;;;;;;;;;;;;;;17.30;84.01;96673.22;5074960;28;19959;-80
2021/09/26 08:05:03;;;;;;;;;;;;;;;17.27;83.93;96683.53;5074546;28;19971;-80
2021/09/26 08:07:29;;;;;;;;;;;;;;;17.25;85.52;96681.94;5073364;28;19962;-80
2021/09/26 08:09:56;;;;;;;;;;;;;;;17.24;84.36;96685.66;5073996;28;19957;-81
2021/09/26 08:12:22;;;;;;;;;;;;;;;17.24;85.18;96677.69;5074410;28;20409;-80
2021/09/26 08:14:48;;;;;;;;;;;;;;;17.26;85.80;96680.09;5073987;28;19952;-80
2021/09/26 08:17:15;;;;;;;;;;;;;;;17.28;86.36;96680.63;5074327;28;19954;-80
2021/09/26 08:19:41;;;;;;;;;;;;;;;17.30;86.17;96694.41;5075015;28;19977;-80
2021/09/26 08:22:07;;;;;;;;;;;;;;;17.32;85.67;96689.66;5074015;28;19955;-80
2021/09/26 08:24:33;;;;;;;;;;;;;;;17.32;85.62;96704.78;5074137;28;20417;-80
2021/09/26 08:27:00;;;;;;;;;;;;;;;17.30;86.38;96720.91;5074243;28;19950;-80
2021/09/26 08:29:27;;;;;;;;;;;;;;;17.29;86.53;96718.53;5074304;28;20321;-80
2021/09/26 08:31:54;;;;;;;;;;;;;;;17.26;86.60;96722.50;5073700;28;19959;-80
2021/09/26 08:34:20;;;;;;;;;;;;;;;17.24;87.28;96719.31;5074046;28;20399;-80
2021/09/26 08:36:46;;;;;;;;;;;;;;;17.24;87.13;96722.75;5073896;28;19954;-80
2021/09/26 08:39:12;;;;;;;;;;;;;;;17.24;87.11;96719.31;5073658;28;19962;-80
2021/09/26 08:41:38;;;;;;;;;;;;;;;17.24;87.93;96722.75;5074233;28;20046;-80
2021/09/26 08:44:05;;;;;;;;;;;;;;;17.27;86.55;96718.00;5073817;28;19955;-80
2021/09/26 08:46:32;;;;;;;;;;;;;;;17.27;87.41;96729.41;5073552;28;19965;-80
2021/09/26 08:48:58;;;;;;;;;;;;;;;17.28;87.11;96736.28;5073257;28;19943;-79
2021/09/26 08:51:25;;;;;;;;;;;;;;;17.30;90.43;96736.81;5073696;28;19982;-79
2021/09/26 08:53:51;;;;;;;;;;;;;;;17.28;88.74;96738.13;5073877;28;19975;-77
2021/09/26 08:56:17;;;;;;;;;;;;;;;17.27;91.70;96739.22;5073932;28;20403;-77
2021/09/26 08:58:44;;;;;;;;;;;;;;;17.23;92.00;96736.25;5073641;28;19968;-77
2021/09/26 09:01:10;;;;;;;;;;;;;;;17.19;90.31;96735.94;5073365;28;19970;-77
2021/09/26 09:03:36;;;;;;;;;;;;;;;17.19;91.92;96733.31;5073552;28;20413;-77
2021/09/26 09:06:02;;;;;;;;;;;;;;;17.20;92.14;96732.25;5073624;28;19965;-77
2021/09/26 09:08:27;;;;;;;;;;;;;;;17.19;91.75;96728.00;5073511;28;20424;-78
2021/09/26 09:11:00;;;;;;;;;;;;;;;17.20;89.64;96732.25;5073349;28;19955;-78
2021/09/26 09:13:34;;;;;;;;;;;;;;;17.20;90.90;96734.13;5072913;28;19953;-78
2021/09/26 09:16:01;;;;;;;;;;;;;;;17.18;90.78;96737.00;5073471;28;19958;-78
2021/09/26 09:18:43;;;;;;;;;;;;;;;17.16;90.55;96733.03;5073638;28;19972;-77
2021/09/26 09:21:16;;;;;;;;;;;;;;;17.16;89.37;96733.81;5077719;28;19989;-78
2021/09/26 09:23:42;;;;;;;;;;;;;;;17.13;92.32;96731.66;5077280;28;20440;-77
2021/09/26 09:26:08;;;;;;;;;;;;;;;17.11;91.05;96732.97;5077887;28;19958;-77
2021/09/26 09:28:39;;;;;;;;;;;;;;;17.10;90.62;96724.22;5077634;28;20040;-77
2021/09/26 09:31:06;;;;;;;;;;;;;;;17.11;90.66;96731.09;5068387;28;19956;-77
2021/09/26 09:33:37;;;;;;;;;;;;;;;17.11;91.89;96735.63;5077234;28;19958;-77
2021/09/26 09:36:03;;;;;;;;;;;;;;;17.09;91.42;96727.91;5077632;28;19953;-77
2021/09/26 09:38:29;;;;;;;;;;;;;;;17.09;92.05;96732.41;5077337;28;19949;-77
2021/09/26 09:40:58;;;;;;;;;;;;;;;17.07;93.76;96740.63;5077679;28;19965;-77
2021/09/26 09:43:26;;;;;;;;;;;;;;;17.04;93.20;96736.63;5077230;28;20394;-77
2021/09/26 09:45:54;;;;;;;;;;;;;;;17.03;93.89;96715.69;5076902;28;19946;-77
2021/09/26 09:48:20;;;;;;;;;;;;;;;17.04;93.74;96704.03;5077746;28;19949;-77
2021/09/26 09:50:49;;;;;;;;;;;;;;;17.03;94.13;96697.94;5076794;28;19979;-76
2021/09/26 09:53:18;;;;;;;;;;;;;;;17.03;94.05;96695.28;5076936;28;19967;-76
2021/09/26 09:55:44;;;;;;;;;;;;;;;17.04;94.12;96704.81;5077029;28;19956;-77
2021/09/26 09:58:14;;;;;;;;;;;;;;;17.12;94.28;96705.44;5076903;28;19959;-77
2021/09/26 10:00:50;;;;;;;;;;;;;;;17.19;94.92;96695.41;5065733;28;19977;-78
2021/09/26 10:03:51;;;;;;;;;;;;;;;17.24;95.21;96690.94;5077060;28;20423;-78
2021/09/26 10:06:18;;;;;;;;;;;;;;;17.30;97.29;96685.66;5054359;28;19956;-78
2021/09/26 10:08:44;;;;;;;;;;;;;;;17.37;94.57;96686.25;5071682;28;19954;-78
2021/09/26 10:11:10;;;;;;;;;;;;;;;17.52;94.27;96693.53;5076670;28;20311;-79
2021/09/26 10:13:36;;;;;;;;;;;;;;;17.67;94.15;96692.81;5076934;28;19957;-80
2021/09/26 10:16:06;;;;;;;;;;;;;;;17.79;95.92;96682.78;5076920;28;19956;-79
2021/09/26 10:18:33;;;;;;;;;;;;;;;17.88;93.52;96688.44;5076583;28;19949;-80
2021/09/26 10:21:00;;;;;;;;;;;;;;;17.97;92.80;96692.97;5076239;28;19973;-80
2021/09/26 10:23:26;;;;;;;;;;;;;;;18.00;92.59;96689.81;5076442;28;20425;-80
2021/09/26 10:25:54;;;;;;;;;;;;;;;18.02;90.85;96686.91;5077036;28;19965;-80
2021/09/26 10:28:23;;;;;;;;;;;;;;;18.01;90.89;96695.91;5076579;28;19951;-80
2021/09/26 10:30:50;;;;;;;;;;;;;;;18.01;91.09;96699.34;5075654;28;19956;-80
2021/09/26 10:33:16;;;;;;;;;;;;;;;18.00;90.65;96699.63;5076290;28;19963;-80
2021/09/26 10:35:43;;;;;;;;;;;;;;;17.99;90.43;96709.44;5076310;28;19954;-80
2021/09/26 10:38:10;;;;;;;;;;;;;;;18.01;91.16;96690.59;5076309;28;19952;-80
2021/09/26 10:40:37;;;;;;;;;;;;;;;18.02;92.22;96700.19;5076581;28;19982;-80
2021/09/26 10:43:21;;;;;;;;;;;;;;;18.05;90.52;96697.00;5076425;28;19951;-80
2021/09/26 10:45:48;;;;;;;;;;;;;;;18.07;91.42;96694.88;5076093;28;19963;-81
2021/09/26 10:48:14;;;;;;;;;;;;;;;18.03;89.40;96699.09;5075647;28;19953;-80
2021/09/26 10:50:41;;;;;;;;;;;;;;;18.01;90.13;96701.22;5076121;28;19971;-80
2021/09/26 10:53:08;;;;;;;;;;;;;;;18.01;88.97;96694.03;5076097;28;19958;-80
2021/09/26 10:55:34;;;;;;;;;;;;;;;18.00;88.82;96676.53;5076046;28;19949;-80
2021/09/26 10:58:00;;;;;;;;;;;;;;;18.01;90.43;96678.13;5076260;28;19976;-80
2021/09/26 11:00:35;;;;;;;;;;;;;;;18.07;90.38;96665.69;5075687;28;20453;-80
2021/09/26 11:03:04;;;;;;;;;;;;;;;18.14;89.48;96668.91;5075819;28;19980;-80
2021/09/26 11:05:32;;;;;;;;;;;;;;;18.20;89.01;96665.19;5075805;28;19961;-80
2021/09/26 11:07:58;;;;;;;;;;;;;;;18.30;87.78;96660.97;5075646;28;19960;-80
2021/09/26 11:10:53;;;;;;;;;;;;;;;18.43;88.07;96661.25;5075645;28;19950;-80
2021/09/26 11:13:27;;;;;;;;;;;;;;;18.70;88.99;96657.59;5070490;28;19967;-81
2021/09/26 11:15:59;;;;;;;;;;;;;;;18.97;87.17;96651.25;5075777;28;20418;-81
2021/09/26 11:18:43;;;;;;;;;;;;;;;19.23;85.47;96650.19;5075680;28;19956;-81
2021/09/26 11:21:29;;;;;;;;;;;;;;;19.40;83.46;96647.22;5075290;28;20342;-81
2021/09/26 11:23:59;;;;;;;;;;;;;;;19.72;85.01;96645.28;5075227;28;20297;-81
2021/09/26 11:26:25;;;;;;;;;;;;;;;19.93;80.38;96632.69;5075461;28;20412;-82
2021/09/26 11:28:58;;;;;;;;;;;;;;;19.95;79.69;96633.22;5075265;28;20435;-82
2021/09/26 11:31:41;;;;;;;;;;;;;;;19.98;80.13;96627.38;5075682;28;19963;-82
2021/09/26 11:34:08;;;;;;;;;;;;;;;20.07;80.35;96631.84;5068703;28;20307;-82
2021/09/26 11:36:34;;;;;;;;;;;;;;;20.18;79.84;96631.78;5074990;28;19964;-82
2021/09/26 11:39:23;;;;;;;;;;;;;;;20.37;80.85;96638.09;5074668;28;19955;-82
2021/09/26 11:41:49;;;;;;;;;;;;;;;20.54;77.75;96642.25;5074700;28;20340;-81
2021/09/26 11:44:16;;;;;;;;;;;;;;;20.53;77.40;96641.44;5075190;28;19999;-81
2021/09/26 11:46:49;;;;;;;;;;;;;;;20.44;75.48;96633.22;5074822;28;20334;-81
2021/09/26 11:49:16;;;;;;;;;;;;;;;20.43;76.27;96638.81;5074994;28;19984;-81
2021/09/26 11:51:42;;;;;;;;;;;;;;;20.54;74.74;96639.59;5073523;28;19964;-81
2021/09/26 11:54:08;;;;;;;;;;;;;;;20.60;76.13;96644.63;5074809;28;20512;-81
2021/09/26 11:56:36;;;;;;;;;;;;;;;20.71;74.48;96636.56;5074728;28;19946;-81
2021/09/26 11:59:12;;;;;;;;;;;;;;;20.78;75.23;96632.47;5074974;28;20354;-81
2021/09/26 12:01:48;;;;;;;;;;;;;;;20.98;73.88;96622.75;5074894;28;19973;-81
2021/09/26 12:04:17;;;;;;;;;;;;;;;21.09;73.00;96629.56;5074854;28;19961;-81
2021/09/26 12:06:45;;;;;;;;;;;;;;;21.13;73.26;96625.25;5074479;28;19945;-81
2021/09/26 12:09:17;;;;;;;;;;;;;;;21.14;71.24;96624.19;5074507;28;19956;-81
2021/09/26 12:11:46;;;;;;;;;;;;;;;21.07;72.30;96613.06;5074260;28;19950;-81
2021/09/26 12:14:20;;;;;;;;;;;;;;;21.02;73.99;96619.22;5074079;28;19965;-81
2021/09/26 12:16:46;;;;;;;;;;;;;;;21.08;72.30;96614.63;5074461;28;19952;-81
2021/09/26 12:19:12;;;;;;;;;;;;;;;21.26;72.37;96613.94;5074450;28;19959;-81
2021/09/26 12:21:37;;;;;;;;;;;;;;;21.45;70.63;96610.56;5074309;28;19968;-81
2021/09/26 12:24:06;;;;;;;;;;;;;;;21.48;71.96;96621.47;5073986;28;19986;-81
2021/09/26 12:26:37;;;;;;;;;;;;;;;21.42;70.81;96616.47;5073995;28;19959;-81
2021/09/26 12:29:06;;;;;;;;;;;;;;;21.31;71.59;96618.41;5074199;28;19966;-81
2021/09/26 12:31:33;;;;;;;;;;;;;;;21.19;71.53;96624.16;5074287;28;20412;-81
2021/09/26 12:34:00;;;;;;;;;;;;;;;21.14;71.51;96616.16;5073730;28;19963;-80
2021/09/26 12:36:28;;;;;;;;;;;;;;;21.14;74.07;96618.84;5074060;28;20009;-80
2021/09/26 12:38:55;;;;;;;;;;;;;;;21.16;73.42;96613.22;5073913;28;20427;-80
2021/09/26 12:41:23;;;;;;;;;;;;;;;21.12;71.86;96613.00;5074115;28;19972;-81
2021/09/26 12:43:52;;;;;;;;;;;;;;;21.06;72.50;96603.44;5072434;28;19949;-80
2021/09/26 12:46:21;;;;;;;;;;;;;;;21.04;72.48;96606.41;5074027;28;20323;-80
2021/09/26 12:48:47;;;;;;;;;;;;;;;21.05;73.82;96602.66;5062559;28;19950;-80
2021/09/26 12:51:17;;;;;;;;;;;;;;;21.19;72.67;96612.69;5074252;28;19969;-80